createdAt,value
2023-05-14T00:01:59.326Z,101539.27
2023-05-14T00:04:29.922Z,101544.38
2023-05-14T00:07:01.129Z,101547.73
2023-05-14T00:09:31.776Z,101544.10
2023-05-14T00:12:02.520Z,101545.48
2023-05-14T00:14:33.216Z,101541.69
2023-05-14T00:17:03.966Z,101546.73
2023-05-14T00:19:34.681Z,101554.14
2023-05-14T00:22:05.713Z,101559.16
2023-05-14T00:24:40.842Z,101554.64
2023-05-14T00:27:11.616Z,101546.70
2023-05-14T00:29:42.429Z,101539.02
2023-05-14T00:32:13.218Z,101541.52
2023-05-14T00:34:43.959Z,101537.14
2023-05-14T00:37:14.743Z,101533.04
2023-05-14T00:39:45.693Z,101527.43
2023-05-14T00:42:16.518Z,101523.69
2023-05-14T00:44:47.383Z,101519.02
2023-05-14T00:47:18.513Z,101514.02
2023-05-14T00:49:49.267Z,101511.98
2023-05-14T00:52:20.043Z,101513.16
2023-05-14T00:54:50.912Z,101510.91
2023-05-14T00:57:21.742Z,101508.25
2023-05-14T00:59:52.445Z,101511.73
2023-05-14T01:02:23.352Z,101513.94
2023-05-14T01:04:54.237Z,101516.64
2023-05-14T01:07:28.436Z,101511.84
2023-05-14T01:10:01.747Z,101515.90
2023-05-14T01:12:36.078Z,101516.16
2023-05-14T01:15:09.288Z,101511.48
2023-05-14T01:17:40.734Z,101513.63
2023-05-14T01:20:12.165Z,101514.65
2023-05-14T01:22:42.974Z,101515.75
2023-05-14T01:25:13.852Z,101515.36
2023-05-14T01:27:47.371Z,101522.67
2023-05-14T01:30:19.442Z,101521.10
2023-05-14T01:32:50.456Z,101516.09
2023-05-14T01:35:21.461Z,101511.85
2023-05-14T01:37:52.107Z,101512.54
2023-05-14T01:40:23.139Z,101511.08
2023-05-14T01:42:54.584Z,101509.64
2023-05-14T01:45:25.605Z,101505.58
2023-05-14T01:47:56.565Z,101507.13
2023-05-14T01:50:27.264Z,101507.34
2023-05-14T01:52:58.255Z,101504.56
2023-05-14T01:55:28.989Z,101501.02
2023-05-14T01:57:59.868Z,101501.81
2023-05-14T02:00:30.685Z,101501.31
2023-05-14T02:03:01.418Z,101498.44
2023-05-14T02:05:32.270Z,101502.35
2023-05-14T02:08:03.123Z,101502.98
2023-05-14T02:10:33.892Z,101501.69
2023-05-14T02:13:04.716Z,101500.29
2023-05-14T02:15:35.545Z,101502.27
2023-05-14T02:18:06.244Z,101501.20
2023-05-14T02:20:37.036Z,101502.45
2023-05-14T02:23:07.885Z,101500.04
2023-05-14T02:25:38.863Z,101498.74
2023-05-14T02:28:09.593Z,101500.36
2023-05-14T02:30:40.467Z,101498.67
2023-05-14T02:33:11.320Z,101493.83
2023-05-14T02:35:42.431Z,101492.80
2023-05-14T02:38:13.249Z,101493.95
2023-05-14T02:40:44.097Z,101499.09
2023-05-14T02:43:14.708Z,101504.21
2023-05-14T02:45:45.564Z,101497.09
2023-05-14T02:48:16.288Z,101500.88
2023-05-14T02:50:47.021Z,101503.23
2023-05-14T02:53:17.675Z,101504.23
2023-05-14T02:55:48.456Z,101504.76
2023-05-14T02:58:19.273Z,101505.09
2023-05-14T03:00:56.570Z,101507.95
2023-05-14T03:03:28.031Z,101507.77
2023-05-14T03:05:59.039Z,101507.77
2023-05-14T03:08:29.771Z,101509.81
2023-05-14T03:11:00.543Z,101520.60
2023-05-14T03:13:31.133Z,101521.20
2023-05-14T03:16:01.912Z,101514.98
2023-05-14T03:18:33.524Z,101516.59
2023-05-14T03:21:04.614Z,101516.48
2023-05-14T03:23:35.876Z,101515.06
2023-05-14T03:26:06.678Z,101515.01
2023-05-14T03:28:37.358Z,101514.05
2023-05-14T03:31:08.278Z,101518.13
2023-05-14T03:33:39.030Z,101525.48
2023-05-14T03:36:10.024Z,101531.53
2023-05-14T03:38:40.784Z,101538.31
2023-05-14T03:41:11.452Z,101544.17
2023-05-14T03:43:42.122Z,101544.91
2023-05-14T03:46:12.916Z,101554.24
2023-05-14T03:48:43.931Z,101549.66
2023-05-14T03:51:14.738Z,101552.13
2023-05-14T03:53:45.551Z,101555.74
2023-05-14T03:56:16.406Z,101556.23
2023-05-14T03:58:47.086Z,101556.30
2023-05-14T04:01:17.872Z,101552.73
2023-05-14T04:03:48.788Z,101550.14
2023-05-14T04:06:19.814Z,101550.73
2023-05-14T04:08:50.536Z,101543.84
2023-05-14T04:11:21.414Z,101545.65
2023-05-14T04:13:52.006Z,101541.76
2023-05-14T04:16:22.919Z,101543.06
2023-05-14T04:18:53.730Z,101547.32
2023-05-14T04:21:24.520Z,101553.91
2023-05-14T04:23:55.262Z,101553.45
2023-05-14T04:26:26.267Z,101557.60
2023-05-14T04:28:57.006Z,101561.77
2023-05-14T04:31:27.758Z,101566.83
2023-05-14T04:33:58.394Z,101566.27
2023-05-14T04:36:29.038Z,101566.33
2023-05-14T04:38:59.879Z,101560.27
2023-05-14T04:41:30.672Z,101555.58
2023-05-14T04:44:01.256Z,101554.52
2023-05-14T04:46:32.166Z,101558.44
2023-05-14T04:49:02.905Z,101558.79
2023-05-14T04:51:33.613Z,101551.62
2023-05-14T04:54:04.284Z,101550.33
2023-05-14T04:56:35.258Z,101549.64
2023-05-14T04:59:06.514Z,101549.66
2023-05-14T05:01:37.150Z,101542.11
2023-05-14T05:04:08.218Z,101538.21
2023-05-14T05:06:38.967Z,101534.98
2023-05-14T05:09:10.112Z,101532.86
2023-05-14T05:11:40.779Z,101530.98
2023-05-14T05:14:11.376Z,101533.00
2023-05-14T05:16:42.115Z,101528.98
2023-05-14T05:19:13.146Z,101522.88
2023-05-14T05:21:43.991Z,101522.35
2023-05-14T05:24:15.126Z,101521.89
2023-05-14T05:26:46.279Z,101516.63
2023-05-14T05:29:17.137Z,101526.20
2023-05-14T05:31:47.912Z,101535.62
2023-05-14T05:34:19.595Z,101543.83
2023-05-14T05:36:50.319Z,101541.89
2023-05-14T05:39:20.959Z,101540.45
2023-05-14T05:41:51.662Z,101539.72
2023-05-14T05:44:22.463Z,101546.70
2023-05-14T05:46:53.240Z,101548.70
2023-05-14T05:49:23.977Z,101548.59
2023-05-14T05:51:54.816Z,101542.53
2023-05-14T05:54:27.342Z,101544.69
2023-05-14T05:56:58.228Z,101550.83
2023-05-14T05:59:29.033Z,101548.67
2023-05-14T06:01:59.781Z,101546.91
2023-05-14T06:04:30.686Z,101549.79
2023-05-14T06:07:01.356Z,101555.36
2023-05-14T06:09:31.882Z,101562.09
2023-05-14T06:12:02.831Z,101569.11
2023-05-14T06:14:33.644Z,101572.95
2023-05-14T06:17:04.541Z,101569.88
2023-05-14T06:19:35.474Z,101573.48
2023-05-14T06:22:06.539Z,101575.53
2023-05-14T06:24:37.213Z,101580.84
2023-05-14T06:27:08.162Z,101588.12
2023-05-14T06:29:39.072Z,101585.64
2023-05-14T06:32:27.253Z,101578.58
2023-05-14T06:34:58.037Z,101577.50
2023-05-14T06:37:29.037Z,101576.69
2023-05-14T06:39:59.944Z,101583.85
2023-05-14T06:42:30.918Z,101583.64
2023-05-14T06:45:01.924Z,101576.84
2023-05-14T06:47:32.811Z,101574.52
2023-05-14T06:50:03.830Z,101578.43
2023-05-14T06:52:34.628Z,101577.63
2023-05-14T06:55:06.801Z,101572.96
2023-05-14T06:57:39.918Z,101566.80
2023-05-14T07:00:12.484Z,101559.64
2023-05-14T07:02:43.394Z,101556.34
2023-05-14T07:05:14.919Z,101558.48
2023-05-14T07:07:45.638Z,101560.00
2023-05-14T07:10:16.334Z,101560.63
2023-05-14T07:13:58.716Z,101559.48
2023-05-14T07:16:29.371Z,101565.87
2023-05-14T07:19:00.300Z,101564.19
2023-05-14T07:21:31.854Z,101564.65
2023-05-14T07:24:02.701Z,101558.70
2023-05-14T07:26:33.427Z,101555.48
2023-05-14T07:29:04.050Z,101550.48
2023-05-14T07:31:34.857Z,101548.82
2023-05-14T07:34:05.839Z,101543.52
2023-05-14T07:36:54.017Z,101535.48
2023-05-14T07:39:24.624Z,101534.60
2023-05-14T07:41:55.470Z,101533.70
2023-05-14T07:44:26.184Z,101538.83
2023-05-14T07:46:56.897Z,101534.89
2023-05-14T07:49:27.589Z,101532.71
2023-05-14T07:51:58.794Z,101532.25
2023-05-14T07:54:29.569Z,101531.69
2023-05-14T07:57:00.386Z,101524.60
2023-05-14T07:59:31.370Z,101524.98
2023-05-14T08:02:02.125Z,101519.30
2023-05-14T08:04:32.828Z,101515.57
2023-05-14T08:07:03.610Z,101517.16
2023-05-14T08:09:34.320Z,101513.45
2023-05-14T08:12:05.404Z,101519.25
2023-05-14T08:14:36.238Z,101518.96
2023-05-14T08:17:07.335Z,101517.00
2023-05-14T08:19:37.925Z,101516.33
2023-05-14T08:22:08.496Z,101512.87
2023-05-14T08:24:39.171Z,101512.21
2023-05-14T08:27:09.821Z,101518.39
2023-05-14T08:29:40.660Z,101519.20
2023-05-14T08:32:22.000Z,101526.13
2023-05-14T08:34:54.028Z,101520.56
2023-05-14T08:37:24.779Z,101518.66
2023-05-14T08:39:56.386Z,101518.35
2023-05-14T08:42:27.277Z,101521.03
2023-05-14T08:45:01.532Z,101518.98
2023-05-14T08:47:34.650Z,101513.15
2023-05-14T08:50:07.810Z,101511.45
2023-05-14T08:52:38.447Z,101513.16
2023-05-14T08:55:09.914Z,101503.42
2023-05-14T08:57:40.801Z,101502.38
2023-05-14T09:00:12.552Z,101497.42
2023-05-14T09:02:43.547Z,101489.78
2023-05-14T09:05:14.225Z,101489.84
2023-05-14T09:07:44.920Z,101489.20
2023-05-14T09:10:15.570Z,101492.16
2023-05-14T09:12:46.312Z,101494.93
2023-05-14T09:15:17.168Z,101495.37
2023-05-14T09:17:48.742Z,101491.98
2023-05-14T09:20:19.639Z,101483.52
2023-05-14T09:22:50.313Z,101485.71
2023-05-14T09:25:23.566Z,101484.42
2023-05-14T09:27:58.684Z,101478.66
2023-05-14T09:30:30.264Z,101473.81
2023-05-14T09:33:01.753Z,101476.95
2023-05-14T09:35:33.622Z,101473.05
2023-05-14T09:38:04.189Z,101463.98
2023-05-14T09:40:35.006Z,101463.19
2023-05-14T09:43:06.395Z,101460.34
2023-05-14T09:45:37.759Z,101456.59
2023-05-14T09:48:09.487Z,101461.39
2023-05-14T09:50:44.383Z,101457.40
2023-05-14T09:53:15.447Z,101450.54
2023-05-14T09:55:46.512Z,101451.02
2023-05-14T09:58:17.228Z,101452.52
2023-05-14T10:00:48.130Z,101444.92
2023-05-14T10:03:20.072Z,101441.95
2023-05-14T10:05:51.547Z,101440.18
2023-05-14T10:08:23.557Z,101448.27
2023-05-14T10:10:54.820Z,101457.10
2023-05-14T10:13:26.534Z,101451.13
2023-05-14T10:15:59.276Z,101438.52
2023-05-14T10:18:31.247Z,101436.75
2023-05-14T10:21:04.726Z,101439.81
2023-05-14T10:23:37.819Z,101438.15
2023-05-14T10:26:08.603Z,101436.66
2023-05-14T10:28:39.283Z,101434.52
2023-05-14T10:31:10.465Z,101439.52
2023-05-14T10:33:50.468Z,101446.92
2023-05-14T10:36:23.513Z,101443.48
2023-05-14T10:38:58.615Z,101438.56
2023-05-14T10:41:29.398Z,101436.36
2023-05-14T10:44:00.926Z,101435.99
2023-05-14T10:46:31.842Z,101425.34
2023-05-14T10:49:02.641Z,101412.45
2023-05-14T10:51:33.606Z,101417.02
2023-05-14T10:54:04.489Z,101411.39
2023-05-14T10:56:35.473Z,101407.38
2023-05-14T10:59:06.242Z,101401.17
2023-05-14T11:01:37.109Z,101395.13
2023-05-14T11:04:09.159Z,101389.23
2023-05-14T11:06:40.027Z,101378.34
2023-05-14T11:09:10.788Z,101370.59
2023-05-14T11:11:41.638Z,101365.52
2023-05-14T11:14:12.289Z,101360.66
2023-05-14T11:16:42.974Z,101348.68
2023-05-14T11:19:13.904Z,101344.23
2023-05-14T11:21:44.682Z,101339.79
2023-05-14T11:24:15.348Z,101333.25
2023-05-14T11:26:46.166Z,101325.61
2023-05-14T11:29:16.962Z,101324.99
2023-05-14T11:31:47.623Z,101327.48
2023-05-14T11:34:18.361Z,101321.13
2023-05-14T11:36:49.460Z,101326.36
2023-05-14T11:39:20.771Z,101330.56
2023-05-14T11:41:51.374Z,101323.71
2023-05-14T11:44:22.222Z,101321.73
2023-05-14T11:46:59.543Z,101327.15
2023-05-14T11:49:30.251Z,101322.75
2023-05-14T11:52:01.281Z,101313.17
2023-05-14T11:54:32.110Z,101303.09
2023-05-14T11:57:03.956Z,101296.34
2023-05-14T11:59:34.495Z,101300.30
2023-05-14T12:02:05.789Z,101291.85
2023-05-14T12:04:36.632Z,101290.02
2023-05-14T12:07:10.425Z,101291.22
2023-05-14T12:09:45.069Z,101278.71
2023-05-14T12:12:16.359Z,101279.86
2023-05-14T12:14:47.318Z,101277.41
2023-05-14T12:17:18.577Z,101273.55
2023-05-14T12:19:50.307Z,101277.09
2023-05-14T12:22:21.757Z,101266.63
2023-05-14T12:24:56.257Z,101266.05
2023-05-14T12:27:28.477Z,101256.52
2023-05-14T12:30:19.152Z,101253.73
2023-05-14T12:32:53.144Z,101254.82
2023-05-14T12:35:24.326Z,101248.85
2023-05-14T12:37:55.993Z,101250.02
2023-05-14T12:40:26.862Z,101239.45
2023-05-14T12:42:57.782Z,101235.46
2023-05-14T12:45:28.581Z,101223.04
2023-05-14T12:47:59.425Z,101223.52
2023-05-14T12:50:30.350Z,101226.13
2023-05-14T12:53:01.090Z,101236.46
2023-05-14T12:55:31.858Z,101239.28
2023-05-14T12:58:02.758Z,101235.69
2023-05-14T13:00:33.480Z,101238.92
2023-05-14T13:03:04.323Z,101238.04
2023-05-14T13:05:35.168Z,101228.90
2023-05-14T13:08:06.566Z,101216.81
2023-05-14T13:10:37.364Z,101213.14
2023-05-14T13:13:11.692Z,101210.11
2023-05-14T13:15:42.403Z,101204.45
2023-05-14T13:18:13.226Z,101208.98
2023-05-14T13:20:43.805Z,101219.51
2023-05-14T13:23:16.694Z,101223.21
2023-05-14T13:25:49.715Z,101218.89
2023-05-14T13:28:21.105Z,101220.55
2023-05-14T13:31:07.635Z,101220.40
2023-05-14T13:33:42.190Z,101220.86
2023-05-14T13:36:14.368Z,101225.28
2023-05-14T13:38:47.337Z,101224.05
2023-05-14T13:41:18.036Z,101213.00
2023-05-14T13:43:48.956Z,101195.42
2023-05-14T13:46:19.754Z,101176.48
2023-05-14T13:48:51.114Z,101164.44
2023-05-14T13:51:21.770Z,101159.50
2023-05-14T13:56:29.041Z,101158.04
2023-05-14T13:59:00.009Z,101150.23
2023-05-14T14:01:34.420Z,101143.96
2023-05-14T14:04:06.336Z,101154.13
2023-05-14T14:06:40.794Z,101158.39
2023-05-14T14:09:13.654Z,101165.64
2023-05-14T14:11:44.521Z,101169.50
2023-05-14T14:14:22.499Z,101169.88
2023-05-14T14:16:53.048Z,101171.17
2023-05-14T14:19:25.822Z,101169.79
2023-05-14T14:21:56.607Z,101168.83
2023-05-14T14:24:29.587Z,101169.10
2023-05-14T14:27:02.404Z,101168.80
2023-05-14T14:29:34.523Z,101161.52
2023-05-14T14:32:05.560Z,101161.33
2023-05-14T14:34:36.566Z,101160.27
2023-05-14T14:37:09.163Z,101155.41
2023-05-14T14:39:40.619Z,101153.75
2023-05-14T14:42:11.439Z,101145.84
2023-05-14T14:44:42.905Z,101140.52
2023-05-14T14:47:13.716Z,101130.38
2023-05-14T14:50:00.690Z,101122.10
2023-05-14T14:52:31.367Z,101112.14
2023-05-14T14:55:01.914Z,101105.89
2023-05-14T14:57:32.650Z,101104.48
2023-05-14T15:00:03.844Z,101102.17
2023-05-14T15:02:34.892Z,101100.31
2023-05-14T15:05:10.283Z,101103.27
2023-05-14T15:07:44.017Z,101101.23
2023-05-14T15:10:14.739Z,101100.95
2023-05-14T15:12:45.472Z,101102.76
2023-05-14T15:15:18.969Z,101101.91
2023-05-14T15:17:49.679Z,101108.59
2023-05-14T15:20:20.405Z,101121.70
2023-05-14T15:22:54.965Z,101127.13
2023-05-14T15:25:29.934Z,101132.83
2023-05-14T15:28:02.623Z,101135.69
2023-05-14T15:30:33.406Z,101136.80
2023-05-14T15:33:04.105Z,101139.16
2023-05-14T15:35:37.850Z,101141.19
2023-05-14T15:38:09.032Z,101141.01
2023-05-14T15:40:39.930Z,101143.38
2023-05-14T15:43:10.683Z,101145.14
2023-05-14T15:45:41.396Z,101142.13
2023-05-14T15:48:12.097Z,101133.36
2023-05-14T15:50:42.968Z,101128.55
2023-05-14T15:53:15.889Z,101134.36
2023-05-14T15:55:46.896Z,101124.13
2023-05-14T15:58:17.555Z,101122.50
2023-05-14T16:00:48.344Z,101120.13
2023-05-14T16:03:19.145Z,101129.27
2023-05-14T16:05:49.947Z,101133.55
2023-05-14T16:08:20.644Z,101134.29
2023-05-14T16:10:51.601Z,101133.09
2023-05-14T16:13:22.419Z,101139.73
2023-05-14T16:15:53.279Z,101142.87
2023-05-14T16:18:25.291Z,101144.01
2023-05-14T16:20:56.109Z,101143.42
2023-05-14T16:23:27.489Z,101147.41
2023-05-14T16:25:58.258Z,101153.16
2023-05-14T16:28:28.967Z,101149.09
2023-05-14T16:31:01.414Z,101150.38
2023-05-14T16:33:33.589Z,101147.84
2023-05-14T16:36:07.416Z,101140.73
2023-05-14T16:38:44.580Z,101142.46
2023-05-14T16:41:19.391Z,101140.59
2023-05-14T16:43:51.318Z,101139.43
2023-05-14T16:46:24.945Z,101138.16
2023-05-14T16:49:00.496Z,101136.92
2023-05-14T16:51:31.933Z,101139.63
2023-05-14T16:54:02.915Z,101146.48
2023-05-14T16:56:33.813Z,101142.67
2023-05-14T16:59:04.653Z,101138.48
2023-05-14T17:01:36.266Z,101138.15
2023-05-14T17:04:07.106Z,101146.58
2023-05-14T17:06:37.803Z,101148.44
2023-05-14T17:09:08.689Z,101148.22
2023-05-14T17:11:39.636Z,101150.73
2023-05-14T17:14:12.153Z,101140.67
2023-05-14T17:16:43.215Z,101130.62
2023-05-14T17:19:12.934Z,101128.06
2023-05-14T17:21:50.460Z,101129.11
2023-05-14T17:24:24.585Z,101121.44
2023-05-14T17:26:56.626Z,101115.23
2023-05-14T17:29:27.289Z,101114.83
2023-05-14T17:31:58.137Z,101117.64
2023-05-14T17:34:30.203Z,101118.19
2023-05-14T17:37:01.400Z,101120.30
2023-05-14T17:39:32.158Z,101116.00
2023-05-14T17:42:03.803Z,101112.85
2023-05-14T17:44:37.424Z,101115.77
2023-05-14T17:47:11.912Z,101115.71
2023-05-14T17:49:42.874Z,101115.39
2023-05-14T17:52:14.379Z,101119.55
2023-05-14T17:54:45.111Z,101116.12
2023-05-14T17:57:15.978Z,101117.27
2023-05-14T17:59:48.787Z,101121.86
2023-05-14T18:02:19.522Z,101120.86
2023-05-14T18:05:08.508Z,101120.82
2023-05-14T18:07:42.661Z,101114.75
2023-05-14T18:10:13.382Z,101111.35
2023-05-14T18:12:44.300Z,101108.13
2023-05-14T18:15:15.066Z,101107.77
2023-05-14T18:17:47.183Z,101110.45
2023-05-14T18:20:18.181Z,101110.81
2023-05-14T18:22:52.506Z,101117.51
2023-05-14T18:25:24.371Z,101122.02
2023-05-14T18:27:55.419Z,101122.69
2023-05-14T18:30:31.274Z,101123.58
2023-05-14T18:33:01.855Z,101125.46
2023-05-14T18:35:32.769Z,101130.23
2023-05-14T18:38:04.149Z,101129.41
2023-05-14T18:40:37.530Z,101134.92
2023-05-14T18:43:08.264Z,101137.66
2023-05-14T18:45:43.362Z,101137.21
2023-05-14T18:48:14.264Z,101131.23
2023-05-14T18:50:45.388Z,101129.73
2023-05-14T18:53:17.690Z,101126.82
2023-05-14T18:55:50.328Z,101120.95
2023-05-14T18:58:24.427Z,101115.60
2023-05-14T19:00:57.867Z,101116.02
2023-05-14T19:03:28.648Z,101116.80
2023-05-14T19:05:59.865Z,101115.98
2023-05-14T19:08:30.669Z,101114.25
2023-05-14T19:11:01.560Z,101110.08
2023-05-14T19:13:32.314Z,101098.02
2023-05-14T19:16:04.704Z,101089.44
2023-05-14T19:18:35.400Z,101082.98
2023-05-14T19:21:06.439Z,101084.14
2023-05-14T19:23:37.630Z,101082.92
2023-05-14T19:26:08.487Z,101081.55
2023-05-14T19:28:40.492Z,101077.51
2023-05-14T19:31:11.275Z,101076.62
2023-05-14T19:33:41.990Z,101069.63
2023-05-14T19:36:12.755Z,101065.80
2023-05-14T19:38:43.699Z,101061.55
2023-05-14T19:41:14.297Z,101058.57
2023-05-14T19:43:45.185Z,101060.58
2023-05-14T19:46:15.976Z,101064.88
2023-05-14T19:48:48.559Z,101067.36
2023-05-14T19:51:19.416Z,101066.77
2023-05-14T19:53:50.179Z,101067.58
2023-05-14T19:56:21.715Z,101072.36
2023-05-14T19:58:52.559Z,101070.27
2023-05-14T20:01:23.398Z,101061.50
2023-05-14T20:03:54.249Z,101060.80
2023-05-14T20:06:24.869Z,101062.26
2023-05-14T20:08:56.594Z,101060.44
2023-05-14T20:11:27.453Z,101058.06
2023-05-14T20:13:58.168Z,101056.61
2023-05-14T20:16:29.088Z,101055.96
2023-05-14T20:18:59.810Z,101051.87
2023-05-14T20:21:30.915Z,101048.77
2023-05-14T20:24:01.636Z,101048.02
2023-05-14T20:26:32.312Z,101046.70
2023-05-14T20:29:02.872Z,101053.67
2023-05-14T20:31:33.520Z,101059.21
2023-05-14T20:34:04.175Z,101058.11
2023-05-14T20:36:34.857Z,101063.54
2023-05-14T20:39:08.791Z,101060.20
2023-05-14T20:41:39.601Z,101054.55
2023-05-14T20:44:10.393Z,101054.52
2023-05-14T20:46:41.142Z,101049.65
2023-05-14T20:49:11.747Z,101042.80
2023-05-14T20:51:42.390Z,101040.38
2023-05-14T20:54:13.045Z,101040.55
2023-05-14T20:56:43.702Z,101050.27
2023-05-14T20:59:14.394Z,101045.45
2023-05-14T21:01:45.332Z,101040.42
2023-05-14T21:04:16.411Z,101035.69
2023-05-14T21:06:47.255Z,101033.88
2023-05-14T21:09:17.887Z,101032.98
2023-05-14T21:11:48.440Z,101026.38
2023-05-14T21:14:19.193Z,101019.48
2023-05-14T21:16:49.921Z,101011.36
2023-05-14T21:19:20.930Z,101014.47
2023-05-14T21:21:51.938Z,101006.09
2023-05-14T21:24:22.558Z,101003.48
2023-05-14T21:26:53.684Z,100999.86
2023-05-14T21:29:24.603Z,100994.80
2023-05-14T21:31:55.292Z,100990.83
2023-05-14T21:34:26.070Z,100986.16
2023-05-14T21:36:56.721Z,100986.59
2023-05-14T21:39:27.336Z,100987.33
2023-05-14T21:41:58.055Z,100991.84
2023-05-14T21:44:28.847Z,100993.95
2023-05-14T21:46:59.535Z,100987.85
2023-05-14T21:49:30.187Z,100985.59
2023-05-14T21:52:00.867Z,100979.98
2023-05-14T21:54:31.534Z,100970.14
2023-05-14T21:57:02.960Z,100959.63
2023-05-14T21:59:34.534Z,100947.71
2023-05-14T22:02:07.276Z,100935.20
2023-05-14T22:04:39.090Z,100937.34
2023-05-14T22:07:09.823Z,100938.83
2023-05-14T22:09:40.796Z,100941.87
2023-05-14T22:12:11.626Z,100944.31
2023-05-14T22:14:42.686Z,100944.34
2023-05-14T22:17:16.145Z,100946.66
2023-05-14T22:19:46.859Z,100946.89
2023-05-14T22:22:17.497Z,100943.96
2023-05-14T22:24:48.263Z,100937.21
2023-05-14T22:27:18.951Z,100933.18
2023-05-14T22:29:49.654Z,100931.76
2023-05-14T22:32:20.452Z,100931.02
2023-05-14T22:34:51.353Z,100926.59
2023-05-14T22:37:22.124Z,100931.02
2023-05-14T22:39:52.859Z,100928.77
2023-05-14T22:42:23.702Z,100931.92
2023-05-14T22:44:54.476Z,100930.66
2023-05-14T22:47:26.072Z,100924.38
2023-05-14T22:49:56.878Z,100919.86
2023-05-14T22:52:28.011Z,100916.04
2023-05-14T22:54:58.670Z,100914.04
2023-05-14T22:57:29.475Z,100909.64
2023-05-14T23:00:00.087Z,100910.52
2023-05-14T23:02:30.782Z,100915.98
2023-05-14T23:05:01.575Z,100911.86
2023-05-14T23:07:32.353Z,100911.71
2023-05-14T23:10:03.284Z,100915.11
2023-05-14T23:12:33.903Z,100915.28
2023-05-14T23:15:04.684Z,100914.02
2023-05-14T23:17:35.370Z,100917.62
2023-05-14T23:20:06.918Z,100919.29
2023-05-14T23:22:37.433Z,100918.04
2023-05-14T23:25:09.013Z,100909.55
2023-05-14T23:27:39.779Z,100905.76
2023-05-14T23:30:11.615Z,100904.67
2023-05-14T23:32:42.288Z,100904.47
2023-05-14T23:35:12.985Z,100902.30
2023-05-14T23:37:47.393Z,100908.67
2023-05-14T23:40:18.443Z,100904.59
2023-05-14T23:42:49.065Z,100901.98
2023-05-14T23:45:19.976Z,100903.56
2023-05-14T23:47:50.730Z,100900.66
2023-05-14T23:50:21.429Z,100886.09
2023-05-14T23:52:52.165Z,100877.02
2023-05-14T23:55:23.379Z,100877.05
2023-05-14T23:57:54.388Z,100876.84
